WESTPORT MEDIA Westport In The Media

Enter your "Place, State", US Zip Code or ICAO:  

Nassau Airport, Bahamas

 Lat: 25.05N, Lon: 77.47W
ICAO Used: MYNN
Current Conditions
Updated: 5:00 PM GMT-5 THU APR 17 2014
Sun & Moon Information
Clouds
Clouds
Temp: 27°C
Humidity: 69%
Wind Speed: ENE 7 MPH
Barometer: 1018 mb
Dewpoint: 21°C
Heat Index: 28°C
Wind Chill: 27°C
Civil Twilight: 5:21 AM GMT-5 Moon Phase:
Waning Gibbous Moon
Sunrise: 5:45 AM GMT-5
Sunset: 6:33 PM GMT-5
Civil Twilight: 6:56 PM GMT-5
Forecast for Nassau Airport, Bahamas:
(Forecast based on TAF for )
0800 AM GMT-5 FRI APR 18 2014
  
MORNING AFTERNOON EVENING OVERNIGHT
Mostly
Cloudy
Mostly
Cloudy
Mostly
Cloudy
Mostly
Cloudy
ZoneCast:
Dated: 0800 AM GMT-5 FRI APR 18 2014
Morning...Becoming mostly cloudy with winds from the east at 14 mph.

Afternoon...Mostly cloudy with winds from the east at 14 mph.

Evening...Mostly cloudy with winds from the east at 14 mph.

Overnight...Mostly cloudy with winds from the east at 14 mph.

Original Encoded TAF:
Dated: 0800 AM GMT-5 FRI APR 18 2014
TAF COR MYNN 172145Z 1800/1900 09006KT 9999 SCT018 BKN040 BKN220 
     BECMG 1813/1815 09012KT FEW018CB SCT020 BKN250